createdAt,value
2022-12-11T00:02:27.700Z,1.20
2022-12-11T00:04:57.787Z,1.27
2022-12-11T00:07:27.900Z,0.85
2022-12-11T00:09:58.091Z,1.20
2022-12-11T00:12:28.323Z,1.20
2022-12-11T00:14:58.424Z,1.33
2022-12-11T00:17:31.211Z,1.50
2022-12-11T00:20:01.292Z,1.38
2022-12-11T00:22:33.138Z,1.20
2022-12-11T00:25:06.652Z,1.13
2022-12-11T00:27:36.843Z,1.20
2022-12-11T00:30:08.557Z,1.55
2022-12-11T00:32:41.204Z,1.20
2022-12-11T00:35:13.120Z,1.30
2022-12-11T00:37:43.367Z,1.30
2022-12-11T00:40:17.851Z,1.40
2022-12-11T00:42:48.006Z,1.40
2022-12-11T00:45:18.983Z,1.23
2022-12-11T00:47:51.689Z,1.20
2022-12-11T00:50:21.935Z,1.60
2022-12-11T00:52:52.010Z,1.10
2022-12-11T00:55:22.034Z,1.50
2022-12-11T00:57:54.385Z,1.10
2022-12-11T01:00:25.582Z,0.93
2022-12-11T01:02:58.491Z,1.00
2022-12-11T01:05:28.776Z,0.90
2022-12-11T01:07:58.959Z,0.98
2022-12-11T01:10:29.667Z,1.05
2022-12-11T01:13:01.475Z,1.13
2022-12-11T01:15:38.678Z,0.95
2022-12-11T01:18:15.084Z,1.25
2022-12-11T01:23:16.861Z,1.23
2022-12-11T01:25:47.561Z,1.17
2022-12-11T01:28:17.910Z,1.20
2022-12-11T01:30:48.240Z,1.20
2022-12-11T01:33:20.943Z,1.25
2022-12-11T01:35:51.045Z,1.00
2022-12-11T01:38:21.147Z,1.10
2022-12-11T01:40:52.771Z,1.05
2022-12-11T01:43:23.885Z,0.93
2022-12-11T01:45:53.951Z,1.10
2022-12-11T01:48:30.339Z,1.63
2022-12-11T01:51:04.558Z,1.13
2022-12-11T01:53:38.015Z,1.38
2022-12-11T01:56:10.829Z,1.00
2022-12-11T01:58:45.810Z,0.85
2022-12-11T02:01:24.680Z,1.13
2022-12-11T02:03:58.751Z,1.05
2022-12-11T02:06:39.237Z,1.30
2022-12-11T02:09:12.535Z,1.35
2022-12-11T02:11:50.840Z,1.40
2022-12-11T02:14:32.582Z,1.27
2022-12-11T02:17:06.924Z,1.00
2022-12-11T02:19:58.821Z,1.10
2022-12-11T02:22:38.754Z,1.20
2022-12-11T02:25:19.598Z,0.82
2022-12-11T02:27:56.661Z,1.30
2022-12-11T02:30:30.345Z,1.13
2022-12-11T02:33:01.976Z,0.90
2022-12-11T02:35:36.868Z,0.90
2022-12-11T02:38:15.906Z,0.90
2022-12-11T02:40:47.514Z,0.75
2022-12-11T02:43:21.011Z,0.70
2022-12-11T02:45:56.313Z,1.17
2022-12-11T02:48:27.556Z,0.80
2022-12-11T02:51:00.840Z,0.98
2022-12-11T02:53:34.325Z,0.77
2022-12-11T02:56:11.696Z,1.02
2022-12-11T02:58:50.689Z,0.77
2022-12-11T03:01:54.052Z,0.68
2022-12-11T03:04:26.749Z,0.50
2022-12-11T03:07:02.002Z,0.50
2022-12-11T03:09:32.380Z,0.77
2022-12-11T03:12:02.432Z,0.45
2022-12-11T03:14:32.560Z,1.15
2022-12-11T03:17:10.339Z,1.13
2022-12-11T03:19:49.812Z,0.40
2022-12-11T03:22:24.694Z,0.52
2022-12-11T03:25:00.610Z,0.40
2022-12-11T03:27:36.091Z,0.60
2022-12-11T03:30:09.274Z,0.43
2022-12-11T03:32:43.751Z,0.40
2022-12-11T03:35:22.240Z,0.50
2022-12-11T03:37:54.045Z,0.60
2022-12-11T03:40:26.855Z,0.40
2022-12-11T03:43:00.300Z,0.45
2022-12-11T03:45:32.981Z,0.50
2022-12-11T03:48:05.531Z,0.50
2022-12-11T03:50:40.033Z,0.60
2022-12-11T03:53:10.921Z,0.50
2022-12-11T03:55:43.423Z,0.40
2022-12-11T03:58:13.611Z,0.35
2022-12-11T04:00:43.663Z,0.40
2022-12-11T04:03:18.004Z,0.50
2022-12-11T04:05:52.272Z,0.50
2022-12-11T04:08:23.699Z,0.45
2022-12-11T04:11:14.902Z,0.47
2022-12-11T04:13:45.506Z,0.50
2022-12-11T04:16:12.965Z,0.50
2022-12-11T04:18:55.456Z,0.50
2022-12-11T04:21:40.702Z,0.50
2022-12-11T04:24:18.394Z,0.35
2022-12-11T04:26:50.116Z,0.45
2022-12-11T04:29:20.267Z,0.55
2022-12-11T04:31:50.845Z,0.40
2022-12-11T04:34:23.054Z,0.40
2022-12-11T04:36:55.700Z,0.40
2022-12-11T04:39:25.933Z,0.40
2022-12-11T04:41:55.965Z,0.50
2022-12-11T04:44:25.963Z,0.50
2022-12-11T04:46:55.952Z,0.50
2022-12-11T04:49:26.478Z,0.60
2022-12-11T04:51:59.073Z,0.50
2022-12-11T04:54:29.215Z,0.40
2022-12-11T04:56:59.339Z,0.60
2022-12-11T04:59:29.445Z,0.60
2022-12-11T05:01:59.813Z,0.40
2022-12-11T05:04:34.072Z,0.50
2022-12-11T05:07:06.716Z,0.40
2022-12-11T05:09:36.784Z,0.68
2022-12-11T05:12:07.127Z,0.60
2022-12-11T05:14:37.245Z,0.60
2022-12-11T05:17:07.299Z,0.63
2022-12-11T05:19:37.332Z,0.52
2022-12-11T05:22:09.983Z,0.60
2022-12-11T05:24:40.129Z,0.60
2022-12-11T05:27:12.597Z,0.73
2022-12-11T05:29:42.790Z,0.55
2022-12-11T05:32:13.025Z,0.75
2022-12-11T05:34:43.107Z,1.13
2022-12-11T05:37:15.835Z,0.70
2022-12-11T05:39:45.939Z,0.50
2022-12-11T05:42:15.886Z,0.77
2022-12-11T05:44:45.907Z,0.50
2022-12-11T05:47:16.781Z,0.45
2022-12-11T05:49:47.523Z,0.77
2022-12-11T05:52:20.283Z,0.80
2022-12-11T05:54:52.200Z,0.80
2022-12-11T05:57:22.420Z,0.70
2022-12-11T05:59:52.646Z,0.82
2022-12-11T06:02:22.966Z,0.80
2022-12-11T06:04:53.212Z,0.77
2022-12-11T06:07:25.851Z,0.60
2022-12-11T06:09:56.032Z,0.90
2022-12-11T06:12:26.047Z,0.70
2022-12-11T06:14:56.589Z,0.60
2022-12-11T06:17:26.749Z,0.90
2022-12-11T06:19:56.888Z,0.70
2022-12-11T06:22:29.564Z,1.00
2022-12-11T06:25:02.310Z,0.70
2022-12-11T06:27:32.637Z,0.80
2022-12-11T06:30:03.787Z,1.25
2022-12-11T06:32:34.254Z,1.33
2022-12-11T06:35:04.366Z,0.90
2022-12-11T06:37:37.757Z,0.90
2022-12-11T06:40:09.469Z,1.27
2022-12-11T06:42:39.532Z,1.25
2022-12-11T06:45:11.386Z,1.10
2022-12-11T06:47:41.565Z,1.23
2022-12-11T06:50:12.816Z,1.08
2022-12-11T06:52:45.986Z,1.30
2022-12-11T06:55:16.047Z,0.77
2022-12-11T06:57:46.234Z,1.05
2022-12-11T07:00:19.802Z,1.20
2022-12-11T07:02:50.430Z,1.05
2022-12-11T07:05:20.775Z,1.52
2022-12-11T07:07:56.225Z,1.25
2022-12-11T07:10:27.156Z,1.67
2022-12-11T07:12:57.369Z,1.42
2022-12-11T07:15:27.536Z,0.95
2022-12-11T07:17:57.746Z,1.50
2022-12-11T07:20:29.003Z,1.38
2022-12-11T07:23:01.631Z,1.40
2022-12-11T07:25:33.991Z,0.85
2022-12-11T07:28:04.073Z,1.25
2022-12-11T07:30:34.426Z,1.25
2022-12-11T07:33:04.528Z,1.25
2022-12-11T07:35:34.692Z,1.17
2022-12-11T07:38:07.562Z,2.05
2022-12-11T07:40:37.690Z,1.58
2022-12-11T07:43:10.979Z,1.75
2022-12-11T07:45:41.332Z,9.47
2022-12-11T07:48:12.856Z,6.53
2022-12-11T07:50:42.867Z,1.70
2022-12-11T07:53:15.521Z,2.08
2022-12-11T07:55:45.551Z,1.77
2022-12-11T07:58:15.658Z,1.38
2022-12-11T08:00:47.988Z,1.73
2022-12-11T08:03:18.712Z,1.90
2022-12-11T08:05:52.255Z,1.95
2022-12-11T08:08:25.093Z,2.03
2022-12-11T08:10:58.347Z,2.15
2022-12-11T08:13:28.380Z,2.40
2022-12-11T08:15:58.728Z,2.78
2022-12-11T08:18:28.998Z,2.50
2022-12-11T08:20:59.110Z,3.55
2022-12-11T08:23:31.777Z,4.05
2022-12-11T08:26:02.832Z,2.85
2022-12-11T08:28:32.935Z,2.78
2022-12-11T08:31:03.647Z,2.47
2022-12-11T08:33:33.849Z,2.92
2022-12-11T08:36:05.538Z,2.42
2022-12-11T08:38:38.710Z,2.80
2022-12-11T08:41:14.543Z,2.80
2022-12-11T08:43:45.127Z,2.85
2022-12-11T08:46:16.253Z,2.50
2022-12-11T08:48:46.838Z,3.28
2022-12-11T08:51:18.488Z,2.65
2022-12-11T08:53:51.417Z,2.45
2022-12-11T08:56:23.889Z,2.33
2022-12-11T08:58:54.848Z,2.60
2022-12-11T09:01:26.567Z,3.10
2022-12-11T09:03:59.664Z,2.67
2022-12-11T09:06:31.925Z,3.05
2022-12-11T09:09:06.172Z,2.70
2022-12-11T09:11:38.868Z,2.78
2022-12-11T09:14:10.740Z,3.45
2022-12-11T09:16:43.053Z,2.60
2022-12-11T09:19:16.603Z,2.55
2022-12-11T09:21:47.214Z,2.42
2022-12-11T09:24:19.854Z,3.67
2022-12-11T09:26:49.936Z,4.40
2022-12-11T09:29:20.016Z,3.90
2022-12-11T09:31:50.533Z,4.22
2022-12-11T09:34:23.659Z,2.95
2022-12-11T09:36:57.496Z,2.58
2022-12-11T09:39:30.388Z,3.38
2022-12-11T09:42:12.315Z,4.07
2022-12-11T09:44:46.815Z,3.00
2022-12-11T09:47:24.823Z,2.95
2022-12-11T09:50:05.907Z,3.35
2022-12-11T09:52:40.301Z,2.83
2022-12-11T09:55:19.624Z,3.40
2022-12-11T09:57:57.067Z,3.28
2022-12-11T10:00:31.655Z,3.33
2022-12-11T10:03:31.700Z,3.70
2022-12-11T10:06:14.258Z,3.70
2022-12-11T10:08:53.042Z,3.67
2022-12-11T10:11:40.797Z,3.45
2022-12-11T10:14:20.660Z,3.63
2022-12-11T10:16:55.148Z,3.75
2022-12-11T10:19:30.607Z,4.05
2022-12-11T10:22:03.180Z,3.10
2022-12-11T10:27:41.689Z,3.10
2022-12-11T10:30:19.409Z,3.20
2022-12-11T10:32:56.469Z,3.45
2022-12-11T10:35:38.699Z,2.70
2022-12-11T10:38:16.225Z,3.38
2022-12-11T10:40:48.725Z,3.15
2022-12-11T10:43:21.523Z,3.08
2022-12-11T10:45:55.612Z,3.40
2022-12-11T10:48:26.045Z,3.53
2022-12-11T10:51:02.796Z,3.80
2022-12-11T10:53:34.216Z,3.30
2022-12-11T10:56:05.234Z,3.60
2022-12-11T10:58:43.232Z,2.67
2022-12-11T11:01:17.632Z,3.00
2022-12-11T11:03:58.215Z,2.50
2022-12-11T11:06:29.264Z,2.80
2022-12-11T11:09:01.059Z,4.15
2022-12-11T11:11:34.502Z,3.00
2022-12-11T11:14:17.651Z,3.33
2022-12-11T11:16:49.704Z,2.70
2022-12-11T11:19:28.844Z,2.17
2022-12-11T11:22:01.958Z,2.38
2022-12-11T11:24:38.010Z,1.92
2022-12-11T11:27:15.781Z,2.50
2022-12-11T11:29:56.732Z,2.25
2022-12-11T11:32:32.367Z,2.20
2022-12-11T11:35:20.250Z,1.90
2022-12-11T11:37:58.060Z,2.15
2022-12-11T11:40:31.700Z,1.90
2022-12-11T11:43:10.676Z,2.20
2022-12-11T11:45:49.764Z,2.30
2022-12-11T11:48:31.467Z,1.90
2022-12-11T11:51:01.616Z,1.85
2022-12-11T11:53:37.606Z,2.22
2022-12-11T11:56:18.030Z,2.40
2022-12-11T11:58:55.465Z,2.08
2022-12-11T12:01:28.665Z,2.40
2022-12-11T12:04:00.412Z,2.08
2022-12-11T12:06:47.468Z,1.92
2022-12-11T12:09:34.215Z,2.22
2022-12-11T12:12:13.850Z,2.45
2022-12-11T12:14:58.215Z,1.88
2022-12-11T12:17:42.494Z,1.70
2022-12-11T12:20:21.449Z,2.00
2022-12-11T12:23:05.743Z,1.67
2022-12-11T12:25:43.642Z,1.67
2022-12-11T12:28:25.302Z,2.17
2022-12-11T12:31:08.284Z,2.05
2022-12-11T12:33:53.551Z,2.50
2022-12-11T12:36:34.468Z,2.88
2022-12-11T12:39:08.673Z,2.45
2022-12-11T12:41:51.285Z,2.85
2022-12-11T12:44:24.372Z,3.53
2022-12-11T12:47:02.325Z,5.13
2022-12-11T12:49:46.748Z,4.30
2022-12-11T12:52:19.628Z,3.63
2022-12-11T12:55:06.405Z,3.55
2022-12-11T12:57:38.084Z,3.13
2022-12-11T13:00:13.434Z,2.50
2022-12-11T13:02:53.910Z,3.15
2022-12-11T13:05:29.535Z,3.25
2022-12-11T13:08:02.527Z,2.83
2022-12-11T13:10:35.353Z,3.00
2022-12-11T13:13:07.406Z,2.90
2022-12-11T13:15:40.863Z,2.53
2022-12-11T13:18:36.368Z,2.42
2022-12-11T13:21:32.292Z,2.13
2022-12-11T13:24:18.984Z,2.38
2022-12-11T13:26:50.651Z,2.03
2022-12-11T13:29:35.661Z,2.80
2022-12-11T13:32:22.706Z,2.97
2022-12-11T13:34:58.352Z,3.70
2022-12-11T13:37:36.706Z,3.92
2022-12-11T13:40:19.748Z,4.10
2022-12-11T13:42:54.517Z,4.00
2022-12-11T13:45:30.132Z,3.75
2022-12-11T13:48:01.578Z,3.90
2022-12-11T13:50:34.068Z,3.72
2022-12-11T13:53:06.940Z,2.75
2022-12-11T13:55:38.067Z,2.45
2022-12-11T13:58:19.414Z,2.42
2022-12-11T14:01:02.486Z,2.47
2022-12-11T14:03:34.461Z,2.65
2022-12-11T14:06:05.639Z,2.78
2022-12-11T14:08:43.034Z,3.10
2022-12-11T14:11:24.990Z,2.83
2022-12-11T14:13:55.151Z,3.25
2022-12-11T14:16:27.830Z,3.08
2022-12-11T14:19:03.804Z,3.08
2022-12-11T14:21:33.869Z,3.45
2022-12-11T14:24:07.671Z,2.97
2022-12-11T14:26:40.545Z,2.72
2022-12-11T14:29:26.022Z,2.80
2022-12-11T14:31:57.097Z,2.80
2022-12-11T14:34:29.622Z,3.28
2022-12-11T14:37:02.012Z,3.63
2022-12-11T14:39:40.978Z,3.65
2022-12-11T14:42:15.268Z,3.83
2022-12-11T14:44:52.749Z,3.58
2022-12-11T14:47:26.062Z,3.65
2022-12-11T14:50:02.355Z,3.53
2022-12-11T14:52:36.687Z,2.97
2022-12-11T14:55:13.363Z,4.20
2022-12-11T14:57:47.111Z,3.10
2022-12-11T15:00:29.936Z,3.35
2022-12-11T15:03:02.272Z,2.85
2022-12-11T15:05:40.802Z,2.33
2022-12-11T15:08:25.094Z,2.10
2022-12-11T15:11:06.610Z,1.95
2022-12-11T15:13:38.579Z,2.38
2022-12-11T15:16:11.181Z,1.80
2022-12-11T15:18:44.641Z,1.98
2022-12-11T15:21:16.694Z,2.22
2022-12-11T15:23:54.604Z,2.33
2022-12-11T15:26:37.825Z,2.15
2022-12-11T15:29:10.120Z,2.30
2022-12-11T15:31:40.163Z,2.50
2022-12-11T15:34:24.735Z,2.75
2022-12-11T15:36:54.888Z,2.38
2022-12-11T15:39:27.223Z,2.83
2022-12-11T15:42:00.126Z,2.70
2022-12-11T15:44:30.185Z,2.47
2022-12-11T15:47:00.213Z,2.67
2022-12-11T15:49:30.393Z,2.60
2022-12-11T15:52:00.504Z,2.38
2022-12-11T15:54:30.766Z,2.90
2022-12-11T15:57:06.505Z,2.67
2022-12-11T15:59:36.981Z,2.38
2022-12-11T16:02:08.388Z,2.33
2022-12-11T16:04:38.478Z,2.25
2022-12-11T16:07:09.663Z,2.35
2022-12-11T16:09:39.699Z,2.35
2022-12-11T16:12:14.145Z,2.22
2022-12-11T16:14:44.201Z,2.40
2022-12-11T16:17:15.646Z,2.55
2022-12-11T16:19:47.102Z,2.53
2022-12-11T16:22:17.615Z,2.85
2022-12-11T16:24:47.727Z,2.85
2022-12-11T16:27:23.247Z,2.75
2022-12-11T16:29:56.817Z,2.70
2022-12-11T16:32:26.935Z,2.55
2022-12-11T16:34:57.032Z,2.78
2022-12-11T16:37:27.027Z,3.22
2022-12-11T16:39:57.783Z,3.22
2022-12-11T16:42:30.542Z,3.78
2022-12-11T16:45:08.591Z,3.60
2022-12-11T16:47:39.022Z,4.43
2022-12-11T16:50:10.530Z,4.43
2022-12-11T16:52:40.780Z,4.85
2022-12-11T16:55:12.317Z,4.68
2022-12-11T16:57:48.240Z,4.40
2022-12-11T17:00:20.702Z,3.83
2022-12-11T17:02:50.855Z,5.10
2022-12-11T17:05:21.061Z,5.07
2022-12-11T17:07:51.197Z,5.40
2022-12-11T17:10:21.525Z,6.63
2022-12-11T17:12:54.168Z,6.57
2022-12-11T17:15:24.327Z,6.45
2022-12-11T17:17:54.443Z,5.88
2022-12-11T17:20:24.613Z,6.07
2022-12-11T17:22:54.788Z,5.18
2022-12-11T17:25:25.057Z,5.72
2022-12-11T17:27:58.482Z,5.63
2022-12-11T17:30:28.649Z,4.47
2022-12-11T17:32:58.805Z,4.75
2022-12-11T17:35:28.907Z,4.88
2022-12-11T17:37:59.477Z,3.83
2022-12-11T17:40:30.496Z,3.85
2022-12-11T17:43:06.493Z,3.47
2022-12-11T17:45:36.432Z,3.78
2022-12-11T17:48:06.967Z,3.95
2022-12-11T17:50:37.466Z,4.47
2022-12-11T17:53:07.595Z,4.03
2022-12-11T17:55:38.271Z,4.78
2022-12-11T17:58:11.573Z,4.15
2022-12-11T18:00:42.812Z,5.18
2022-12-11T18:03:13.527Z,4.70
2022-12-11T18:05:44.536Z,4.20
2022-12-11T18:08:15.914Z,4.80
2022-12-11T18:10:46.929Z,4.82
2022-12-11T18:13:19.754Z,4.40
2022-12-11T18:15:49.894Z,4.95
2022-12-11T18:18:20.107Z,3.88
2022-12-11T18:20:51.155Z,4.18
2022-12-11T18:23:21.232Z,4.07
2022-12-11T18:25:51.350Z,4.47
2022-12-11T18:28:24.123Z,4.88
2022-12-11T18:30:54.268Z,4.88
2022-12-11T18:33:24.480Z,5.47
2022-12-11T18:35:57.547Z,4.22
2022-12-11T18:38:27.640Z,4.87
2022-12-11T18:41:00.659Z,5.03
2022-12-11T18:43:33.280Z,4.68
2022-12-11T18:46:03.430Z,4.35
2022-12-11T18:48:36.078Z,4.63
2022-12-11T18:51:10.016Z,5.35
2022-12-11T18:53:41.995Z,4.90
2022-12-11T18:56:14.499Z,5.25
2022-12-11T18:58:47.932Z,6.15
2022-12-11T19:01:21.965Z,6.32
2022-12-11T19:06:32.127Z,5.40
2022-12-11T19:09:03.149Z,4.45
2022-12-11T19:11:38.386Z,6.15
2022-12-11T19:14:12.338Z,4.85
2022-12-11T19:16:45.516Z,5.38
2022-12-11T19:19:18.433Z,5.37
2022-12-11T19:21:49.748Z,5.30
2022-12-11T19:24:22.022Z,4.28
2022-12-11T19:26:52.279Z,4.32
2022-12-11T19:29:27.275Z,4.57
2022-12-11T19:31:58.488Z,4.80
2022-12-11T19:34:31.632Z,4.20
2022-12-11T19:37:01.986Z,4.20
2022-12-11T19:39:32.114Z,3.05
2022-12-11T19:42:02.841Z,3.72
2022-12-11T19:44:35.956Z,3.67
2022-12-11T19:47:06.175Z,3.75
2022-12-11T19:49:36.590Z,4.10
2022-12-11T19:52:07.493Z,3.20
2022-12-11T19:54:37.626Z,3.30
2022-12-11T19:57:08.172Z,3.22
2022-12-11T19:59:56.761Z,2.85
2022-12-11T20:02:27.301Z,2.63
2022-12-11T20:04:57.476Z,2.70
2022-12-11T20:07:30.686Z,2.83
2022-12-11T20:10:07.186Z,3.25
2022-12-11T20:12:40.549Z,2.95
2022-12-11T20:15:14.303Z,3.10
2022-12-11T20:20:15.660Z,2.65
2022-12-11T20:22:45.793Z,3.15
2022-12-11T20:25:16.123Z,3.65
2022-12-11T20:27:46.280Z,3.35
2022-12-11T20:30:23.703Z,2.85
2022-12-11T20:32:54.099Z,3.42
2022-12-11T20:35:24.169Z,3.58
2022-12-11T20:37:54.296Z,3.35
2022-12-11T20:40:25.365Z,4.10
2022-12-11T20:42:55.529Z,3.65
2022-12-11T20:45:28.339Z,3.53
2022-12-11T20:47:58.573Z,4.55
2022-12-11T20:50:29.273Z,3.25
2022-12-11T20:52:59.356Z,3.63
2022-12-11T20:55:29.428Z,4.10
2022-12-11T20:57:59.859Z,3.75
2022-12-11T21:00:33.183Z,3.92
2022-12-11T21:03:03.544Z,3.53
2022-12-11T21:05:33.599Z,3.78
2022-12-11T21:08:03.772Z,3.88
2022-12-11T21:10:33.855Z,4.40
2022-12-11T21:13:03.958Z,4.72
2022-12-11T21:15:38.129Z,4.22
2022-12-11T21:18:08.568Z,5.72
2022-12-11T21:20:39.203Z,5.50
2022-12-11T21:23:09.489Z,5.88
2022-12-11T21:25:40.778Z,7.13
2022-12-11T21:28:11.150Z,6.65
2022-12-11T21:30:49.384Z,6.35
2022-12-11T21:33:19.632Z,6.43
2022-12-11T21:35:57.424Z,7.80
2022-12-11T21:38:28.019Z,8.40
2022-12-11T21:40:59.452Z,8.00
2022-12-11T21:43:29.472Z,8.48
2022-12-11T21:46:02.608Z,8.60
2022-12-11T21:48:33.072Z,8.30
2022-12-11T21:51:09.490Z,7.57
2022-12-11T21:53:40.900Z,6.43
2022-12-11T21:56:12.724Z,5.38
2022-12-11T21:58:44.943Z,5.97
2022-12-11T22:01:21.134Z,5.85
2022-12-11T22:03:52.648Z,6.72
2022-12-11T22:06:22.917Z,6.55
2022-12-11T22:08:53.549Z,7.43
2022-12-11T22:11:28.911Z,7.65
2022-12-11T22:13:59.633Z,5.35
2022-12-11T22:16:32.626Z,7.28
2022-12-11T22:19:03.299Z,6.40
2022-12-11T22:21:33.646Z,6.30
2022-12-11T22:24:03.861Z,6.57
2022-12-11T22:26:33.955Z,7.07
2022-12-11T22:29:03.995Z,6.63
2022-12-11T22:31:36.822Z,5.82
2022-12-11T22:34:06.872Z,5.90
2022-12-11T22:36:37.036Z,6.78
2022-12-11T22:39:07.527Z,6.20
2022-12-11T22:41:42.051Z,5.82
2022-12-11T22:44:17.038Z,5.93
2022-12-11T22:46:50.915Z,5.93
2022-12-11T22:51:51.023Z,6.50
2022-12-11T22:54:21.303Z,5.70
2022-12-11T22:56:53.639Z,5.53
2022-12-11T22:59:23.666Z,6.18
2022-12-11T23:01:56.520Z,6.38
2022-12-11T23:04:26.984Z,6.35
2022-12-11T23:06:57.129Z,5.97
2022-12-11T23:09:27.500Z,7.20
2022-12-11T23:11:58.934Z,5.75
2022-12-11T23:14:29.069Z,7.20
2022-12-11T23:17:01.829Z,6.65
2022-12-11T23:19:31.965Z,6.90
2022-12-11T23:22:01.999Z,6.63
2022-12-11T23:24:32.308Z,7.35
2022-12-11T23:27:02.624Z,6.30
2022-12-11T23:29:32.780Z,7.78
2022-12-11T23:32:05.725Z,8.30
2022-12-11T23:34:35.835Z,6.65
2022-12-11T23:37:06.004Z,7.80
2022-12-11T23:39:36.276Z,7.40
2022-12-11T23:42:06.464Z,7.90
2022-12-11T23:44:36.768Z,8.30
2022-12-11T23:47:09.395Z,8.38
2022-12-11T23:49:39.610Z,6.57
2022-12-11T23:52:11.903Z,6.03
2022-12-11T23:54:42.052Z,6.90
2022-12-11T23:57:12.193Z,8.55
2022-12-11T23:59:42.407Z,7.22
